Hlavní strana
METAR-TAF:

METAR-TAF

Letiště :

Letiště Čáslav

Čáslav, Česká republika

zeměpisná šířka: 49-56-23N, zeměpisná délka: 15-22-55E, výška: 242 m

Aktuální stav počasí

Zpráva byla vytvořena před 1 hodinou a 3 minutami, v 07:00 UTC
vítr z různých směrů 2 kt
Teplota 19°C
Vlhkost vzduchu 64%
Tlak 1022 hPa
Viditelnost 10 km a více
Žádná oblačnost pod 1500 m, nevyskytují se cumulonimby.

METAR: LKCV 260700Z VRB02KT CAVOK 19/12 Q1022 NOSIG RMK BLU BLU

Čas: 10:03 (08:03 UTC)

Předpověď počasí

Zpráva byla vytvořena před 3 hodinami a 3 minutami, v 05:00 UTC
Předpověď platná od 26 v 06 UTC do 27 v 06 UTC
vítr z různých směrů 2 kt
Viditelnost 10 km a více
Žádná oblačnost pod 1500 m, nevyskytují se cumulonimby.
Dočasný
od 26 v 08 UTC do 26 v 20 UTC
Východoseverovýchodní vítr 6 kt

TAF: LKCV 260500Z 2606/2706 VRB02KT CAVOK TEMPO 2608/2620 07006KT

Stav a předpovědi počasí z více než 4 000 letišť (zprávy METAR a TAF).

Červené a žluté tečky na mapě představují dostupné meteorologické stanice.

Když kurzor umístíte na tečku, zobrazí se název stanice.

Pak kliknutím zobrazíte stav a předpověď počasí.

Chcete-li změnit mapu, kliknutím na zelené tlačítko se znaménkem +mapu přiblížíte, kliknutím na zelené tlačítko se znaménkem – mapu oddálíte a kliknutím na zelené šipky přejdete na sousední mapy.


METAR-TAF: